This is the latest recevied weather packets stored in our database for station/object KA1JKB. If no packets are shown the sender has not sent any weather packets the latest 10 day(s).
| Time | Temp. | Humidity | Pressure | Rain* | Wind** | Luminosity | Snow |
|---|---|---|---|---|---|---|---|
| 1787750616 | 18.89° C | 89% | 1013.3 hPa | 0 mm | - | 243 W/m² | - |
| 1787750311 | 17.78° C | 93% | 1013.2 hPa | 0 mm | - | 162 W/m² | - |
| 1787750006 | 17.22° C | 96% | 1013 hPa | 0 mm | - | 122 W/m² | - |
| 1787749703 | 16.67° C | 99% | 1013.2 hPa | 0 mm | - | 129 W/m² | - |
| 1787749398 | 16.11° C | 99% | 1013.4 hPa | 0 mm | - | 105 W/m² | - |
| 1787749098 | 16.11° C | 99% | 1013.3 hPa | 0 mm | - | 116 W/m² | - |
| 1787748792 | 16.11° C | 99% | 1013.2 hPa | 0 mm | - | 108 W/m² | - |
| 1787748492 | 16.11° C | 99% | 1013 hPa | 0 mm | - | 121 W/m² | - |
| 1787748189 | 16.11° C | 99% | 1013.4 hPa | 0 mm | - | 108 W/m² | - |
| 1787747888 | 15.56° C | 99% | 1013.5 hPa | 0 mm | - | 93 W/m² | - |
| 1787747583 | 15.56° C | 99% | 1013.2 hPa | 0 mm | - | 86 W/m² | - |
| 1787747283 | 15.56° C | 99% | 1013.4 hPa | 0 mm | - | 92 W/m² | - |
| 1787746979 | 15° C | 99% | 1013.3 hPa | 0 mm | - | 75 W/m² | - |
| 1787746675 | 14.44° C | 99% | 1013.5 hPa | 0 mm | - | 59 W/m² | - |
| 1787746373 | 14.44° C | 99% | 1013.6 hPa | 0 mm | - | 60 W/m² | - |
| 1787746072 | 13.89° C | 99% | 1013.6 hPa | 0 mm | - | 48 W/m² | - |
| 1787745772 | 13.89° C | 99% | 1013.6 hPa | 0 mm | - | 44 W/m² | - |
| 1787745470 | 13.33° C | 99% | 1013.6 hPa | 0 mm | - | 43 W/m² | - |
| 1787745165 | 12.78° C | 99% | 1013.6 hPa | 0 mm | - | 39 W/m² | - |
| 1787744862 | 12.22° C | 99% | 1013.5 hPa | 0 mm | - | 35 W/m² | - |
| 1787744557 | 11.67° C | 99% | 1013.5 hPa | 0 mm | - | 29 W/m² | - |
| 1787744252 | 11.67° C | 99% | 1013.6 hPa | 0 mm | - | 26 W/m² | - |
| 1787743949 | 11.67° C | 99% | 1013.5 hPa | 0 mm | - | 20 W/m² | - |
| 1787743648 | 11.67° C | 99% | 1013.7 hPa | 0 mm | - | 16 W/m² | - |
| 1787743344 | 11.11° C | 99% | 1013.8 hPa | 0 mm | - | 12 W/m² | - |
* Rain latest hour (hover to see other rain measurements)
** Current wind speed in m/s (hover to see current wind gust speed)